sensor_id;sensor_type;location;lat;lon;timestamp;P1;durP1;ratioP1;P2;durP2;ratioP2
22064;SDS011;11197;53.110;8.468;2022-10-31T21:19:46;15.13;;;8.68;;
22064;SDS011;11197;53.110;8.468;2022-10-31T21:22:12;35.75;;;17.35;;
22064;SDS011;11197;53.110;8.468;2022-10-31T21:24:38;38.55;;;20.08;;
22064;SDS011;11197;53.110;8.468;2022-10-31T21:27:05;34.20;;;20.17;;
22064;SDS011;11197;53.110;8.468;2022-10-31T21:29:31;37.20;;;20.52;;
22064;SDS011;11197;53.110;8.468;2022-10-31T21:31:57;35.50;;;20.55;;
22064;SDS011;11197;53.110;8.468;2022-10-31T21:34:23;41.85;;;21.88;;
22064;SDS011;11197;53.110;8.468;2022-10-31T21:36:49;36.08;;;21.33;;
22064;SDS011;11197;53.110;8.468;2022-10-31T21:39:15;42.88;;;22.48;;
22064;SDS011;11197;53.110;8.468;2022-10-31T21:41:41;39.03;;;22.20;;
22064;SDS011;11197;53.110;8.468;2022-10-31T21:44:08;43.20;;;21.65;;
22064;SDS011;11197;53.110;8.468;2022-10-31T21:46:34;40.80;;;21.83;;
22064;SDS011;11197;53.110;8.468;2022-10-31T21:49:03;40.65;;;22.00;;
22064;SDS011;11197;53.110;8.468;2022-10-31T21:51:30;44.13;;;23.55;;
22064;SDS011;11197;53.110;8.468;2022-10-31T21:53:58;46.10;;;22.88;;
22064;SDS011;11197;53.110;8.468;2022-10-31T21:56:43;42.72;;;21.85;;
22064;SDS011;11197;53.110;8.468;2022-10-31T21:59:09;49.72;;;23.85;;
22064;SDS011;11197;53.110;8.468;2022-10-31T22:01:35;44.38;;;23.52;;
22064;SDS011;11197;53.110;8.468;2022-10-31T22:04:02;41.83;;;23.15;;
22064;SDS011;11197;53.110;8.468;2022-10-31T22:06:28;40.70;;;22.33;;
22064;SDS011;11197;53.110;8.468;2022-10-31T22:08:57;46.40;;;23.30;;
22064;SDS011;11197;53.110;8.468;2022-10-31T22:11:24;44.47;;;23.65;;
22064;SDS011;11197;53.110;8.468;2022-10-31T22:13:52;49.38;;;23.83;;
22064;SDS011;11197;53.110;8.468;2022-10-31T22:16:19;44.10;;;24.00;;
22064;SDS011;11197;53.110;8.468;2022-10-31T22:18:46;44.65;;;23.20;;
22064;SDS011;11197;53.110;8.468;2022-10-31T22:21:16;43.35;;;23.38;;
22064;SDS011;11197;53.110;8.468;2022-10-31T22:23:54;45.85;;;23.90;;
22064;SDS011;11197;53.110;8.468;2022-10-31T22:26:21;48.53;;;24.55;;
22064;SDS011;11197;53.110;8.468;2022-10-31T22:28:49;49.83;;;24.13;;
22064;SDS011;11197;53.110;8.468;2022-10-31T22:31:25;47.45;;;24.73;;
22064;SDS011;11197;53.110;8.468;2022-10-31T22:33:52;53.20;;;25.17;;
22064;SDS011;11197;53.110;8.468;2022-10-31T22:36:19;49.47;;;26.55;;
22064;SDS011;11197;53.110;8.468;2022-10-31T22:38:49;49.33;;;25.60;;
22064;SDS011;11197;53.110;8.468;2022-10-31T22:41:19;50.13;;;25.73;;
22064;SDS011;11197;53.110;8.468;2022-10-31T22:43:47;51.95;;;25.65;;
22064;SDS011;11197;53.110;8.468;2022-10-31T22:46:17;51.55;;;26.13;;
22064;SDS011;11197;53.110;8.468;2022-10-31T22:48:52;49.85;;;25.58;;
22064;SDS011;11197;53.110;8.468;2022-10-31T22:51:21;52.13;;;25.92;;
22064;SDS011;11197;53.110;8.468;2022-10-31T22:53:49;52.60;;;26.33;;
22064;SDS011;11197;53.110;8.468;2022-10-31T22:56:19;51.08;;;26.42;;
22064;SDS011;11197;53.110;8.468;2022-10-31T22:58:47;54.92;;;26.40;;
22064;SDS011;11197;53.110;8.468;2022-10-31T23:01:14;53.28;;;26.30;;
22064;SDS011;11197;53.110;8.468;2022-10-31T23:03:41;53.90;;;27.10;;
22064;SDS011;11197;53.110;8.468;2022-10-31T23:06:09;56.10;;;27.55;;
22064;SDS011;11197;53.110;8.468;2022-10-31T23:08:37;49.30;;;25.98;;
22064;SDS011;11197;53.110;8.468;2022-10-31T23:13:45;52.67;;;27.90;;
22064;SDS011;11197;53.110;8.468;2022-10-31T23:16:31;56.00;;;27.98;;
22064;SDS011;11197;53.110;8.468;2022-10-31T23:18:57;57.70;;;28.95;;
22064;SDS011;11197;53.110;8.468;2022-10-31T23:21:23;56.30;;;28.10;;
22064;SDS011;11197;53.110;8.468;2022-10-31T23:24:12;56.45;;;27.27;;
22064;SDS011;11197;53.110;8.468;2022-10-31T23:26:38;55.17;;;26.83;;
22064;SDS011;11197;53.110;8.468;2022-10-31T23:29:24;57.50;;;27.95;;
22064;SDS011;11197;53.110;8.468;2022-10-31T23:31:50;56.40;;;28.70;;
22064;SDS011;11197;53.110;8.468;2022-10-31T23:34:22;58.88;;;28.58;;
22064;SDS011;11197;53.110;8.468;2022-10-31T23:36:48;60.23;;;28.47;;
22064;SDS011;11197;53.110;8.468;2022-10-31T23:39:14;62.88;;;29.80;;
22064;SDS011;11197;53.110;8.468;2022-10-31T23:41:40;64.43;;;29.40;;
22064;SDS011;11197;53.110;8.468;2022-10-31T23:44:06;60.08;;;29.15;;
22064;SDS011;11197;53.110;8.468;2022-10-31T23:46:32;65.28;;;30.90;;
22064;SDS011;11197;53.110;8.468;2022-10-31T23:48:58;62.33;;;30.27;;
22064;SDS011;11197;53.110;8.468;2022-10-31T23:51:23;64.80;;;29.75;;
22064;SDS011;11197;53.110;8.468;2022-10-31T23:53:49;61.38;;;30.88;;
22064;SDS011;11197;53.110;8.468;2022-10-31T23:56:15;63.45;;;29.23;;
22064;SDS011;11197;53.110;8.468;2022-10-31T23:58:41;67.68;;;32.30;;
